Map

Track Data

SID SEASON NUMBER BASIN SUBBASIN NAME ISO_TIME NATURE LAT LON WMO_WIND WMO_PRES WMO_AGENCY TRACK_TYPE DIST2LAND LANDFALL IFLAG USA_AGENCY USA_ATCF_ID USA_LAT USA_LON USA_RECORD USA_STATUS USA_WIND USA_PRES USA_SSHS USA_R34_NE USA_R34_SE USA_R34_SW USA_R34_NW USA_R50_NE USA_R50_SE USA_R50_SW USA_R50_NW USA_R64_NE USA_R64_SE USA_R64_SW USA_R64_NW USA_POCI USA_ROCI USA_RMW USA_EYE TOKYO_LAT TOKYO_LON TOKYO_GRADE TOKYO_WIND TOKYO_PRES TOKYO_R50_DIR TOKYO_R50_LONG TOKYO_R50_SHORT TOKYO_R30_DIR TOKYO_R30_LONG TOKYO_R30_SHORT TOKYO_LAND CMA_LAT CMA_LON CMA_CAT CMA_WIND CMA_PRES HKO_LAT HKO_LON HKO_CAT HKO_WIND HKO_PRES NEWDELHI_LAT NEWDELHI_LON NEWDELHI_GRADE NEWDELHI_WIND NEWDELHI_PRES NEWDELHI_CI NEWDELHI_DP NEWDELHI_POCI REUNION_LAT REUNION_LON REUNION_TYPE REUNION_WIND REUNION_PRES REUNION_TNUM REUNION_CI REUNION_RMW REUNION_R34_NE REUNION_R34_SE REUNION_R34_SW REUNION_R34_NW REUNION_R50_NE REUNION_R50_SE REUNION_R50_SW REUNION_R50_NW REUNION_R64_NE REUNION_R64_SE REUNION_R64_SW REUNION_R64_NW BOM_LAT BOM_LON BOM_TYPE BOM_WIND BOM_PRES BOM_TNUM BOM_CI BOM_RMW BOM_R34_NE BOM_R34_SE BOM_R34_SW BOM_R34_NW BOM_R50_NE BOM_R50_SE BOM_R50_SW BOM_R50_NW BOM_R64_NE BOM_R64_SE BOM_R64_SW BOM_R64_NW BOM_ROCI BOM_POCI BOM_EYE BOM_POS_METHOD BOM_PRES_METHOD NADI_LAT NADI_LON NADI_CAT NADI_WIND NADI_PRES WELLINGTON_LAT WELLINGTON_LON WELLINGTON_WIND WELLINGTON_PRES DS824_LAT DS824_LON DS824_STAGE DS824_WIND DS824_PRES TD9636_LAT TD9636_LON TD9636_STAGE TD9636_WIND TD9636_PRES TD9635_LAT TD9635_LON TD9635_WIND TD9635_PRES TD9635_ROCI NEUMANN_LAT NEUMANN_LON NEUMANN_CLASS NEUMANN_WIND NEUMANN_PRES MLC_LAT MLC_LON MLC_CLASS MLC_WIND MLC_PRES USA_GUST BOM_GUST BOM_GUST_PER REUNION_GUST REUNION_GUST_PER USA_SEAHGT USA_SEARAD_NE USA_SEARAD_SE USA_SEARAD_SW USA_SEARAD_NW STORM_SPEED STORM_DIR
1917296N12131 1917 49 WP MM NOT_NAMED 1917-10-23 09:00:00 NR 12.4000 131.400 main 629 603 __________O___ -1 12.4000 131.400 2 19 331
1917296N12131 1917 49 WP MM NOT_NAMED 1917-10-23 12:00:00 NR 13.2169 130.941 main 596 578 __________P___ -1 13.2169 130.941 2 19 333
1917296N12131 1917 49 WP MM NOT_NAMED 1917-10-23 15:00:00 NR 14.0865 130.524 main 581 580 __________P___ -1 14.0865 130.524 2 20 339
1917296N12131 1917 49 WP MM NOT_NAMED 1917-10-23 18:00:00 NR 15.0627 130.195 main 602 602 __________P___ -1 15.0627 130.195 2 22 347
1917296N12131 1917 49 WP MM NOT_NAMED 1917-10-23 21:00:00 NR 16.2000 130.000 main 654 654 __________O___ -1 16.2000 130.000 2 25 355
1917296N12131 1917 49 WP MM NOT_NAMED 1917-10-24 00:00:00 NR 17.5337 129.975 main 722 722 __________P___ -1 17.5337 129.975 2 28 2
1917296N12131 1917 49 WP MM NOT_NAMED 1917-10-24 03:00:00 NR 19.0202 130.112 main 824 824 __________P___ -1 19.0202 130.112 2 31 7
1917296N12131 1917 49 WP MM NOT_NAMED 1917-10-24 06:00:00 NR 20.5965 130.393 main 883 883 __________P___ -1 20.5965 130.393 2 33 11
1917296N12131 1917 49 WP MM NOT_NAMED 1917-10-24 09:00:00 NR 22.2000 130.800 main 943 817 __________O___ -1 22.2000 130.800 2 34 14
1917296N12131 1917 49 WP MM NOT_NAMED 1917-10-24 12:00:00 NR 23.8285 131.289 main 806 636 __________P___ -1 23.8285 131.289 2 34 17
1917296N12131 1917 49 WP MM NOT_NAMED 1917-10-24 15:00:00 NR 25.4572 131.900 main 625 489 __________P___ -1 25.4572 131.900 2 34 20
1917296N12131 1917 49 WP MM NOT_NAMED 1917-10-24 18:00:00 NR 27.0072 132.587 main 483 385 __________P___ -1 27.0072 132.587 2 32 23
1917296N12131 1917 49 WP MM NOT_NAMED 1917-10-24 21:00:00 NR 28.4000 133.300 main 381 319 __________O___ -1 28.4000 133.300 2 29 25
1917296N12131 1917 49 WP MM NOT_NAMED 1917-10-25 00:00:00 NR 29.5787 133.962 main 319 288 __________P___ -1 29.5787 133.962 2 25 28
1917296N12131 1917 49 WP MM NOT_NAMED 1917-10-25 03:00:00 NR 30.5945 134.634 main 278 221 __________P___ -1 30.5945 134.634 2 22 31
1917296N12131 1917 49 WP MM NOT_NAMED 1917-10-25 06:00:00 NR 31.4882 135.314 main 215 124 __________P___ -1 31.4882 135.314 2 21 34
1917296N12131 1917 49 WP MM NOT_NAMED 1917-10-25 09:00:00 NR 32.3000 136.000 main 124 85 __________O___ -1 32.3000 136.000 2 19 35
1917296N12131 1917 49 WP MM NOT_NAMED 1917-10-25 12:00:00 NR 33.0264 136.610 main 85 72 __________P___ -1 33.0264 136.610 2 17 37
1917296N12131 1917 49 WP MM NOT_NAMED 1917-10-25 15:00:00 NR 33.6962 137.234 main 72 33 __________P___ -1 33.6962 137.234 2 18 39
1917296N12131 1917 49 WP MM NOT_NAMED 1917-10-25 18:00:00 NR 34.3932 137.940 main 33 0 __________P___ -1 34.3932 137.940 2 20 41
1917296N12131 1917 49 WP MM NOT_NAMED 1917-10-25 21:00:00 NR 35.2000 138.800 main 0 0 __________O___ -1 35.2000 138.800 2 25 41
1917296N12131 1917 49 WP MM NOT_NAMED 1917-10-26 00:00:00 NR 36.2643 139.903 main 0 0 __________P___ -1 36.2643 139.903 2 29 41
1917296N12131 1917 49 WP MM NOT_NAMED 1917-10-26 03:00:00 NR 37.4291 141.190 main 17 17 __________P___ -1 37.4291 141.190 2 32 43
1917296N12131 1917 49 WP MM NOT_NAMED 1917-10-26 06:00:00 NR 38.6038 142.609 main 82 82 __________P___ -1 38.6038 142.609 2 32 45
1917296N12131 1917 49 WP MM NOT_NAMED 1917-10-26 09:00:00 NR 39.7000 144.100 main 172 172 __________O___ -1 39.7000 144.100 2 31 48
1917296N12131 1917 49 WP MM NOT_NAMED 1917-10-26 12:00:00 NR 40.6534 145.607 main 239 230 __________P___ -1 40.6534 145.607 2 29 52
1917296N12131 1917 49 WP MM NOT_NAMED 1917-10-26 15:00:00 NR 41.4808 147.121 main 230 230 __________P___ -1 41.4808 147.121 2 28 56
1917296N12131 1917 49 WP MM NOT_NAMED 1917-10-26 18:00:00 NR 42.2181 148.650 main 273 273 __________P___ -1 42.2181 148.650 2 27 58
1917296N12131 1917 49 WP MM NOT_NAMED 1917-10-26 21:00:00 NR 42.9000 150.200 main 289 __________O___ -1 42.9000 150.200 2 26 59

Digital Typhoon Data and Search

About IBTrACS Database

This database is a web-friendly format of International Best Track Archive for Climate Stewardship (IBTrACS), a global best track data archive curated by NOAA dating back to 1842.

Updated: 2021-12-01